createdAt,value
2023-04-04T00:00:18.133Z,7.03
2023-04-04T00:02:44.705Z,7.17
2023-04-04T00:05:11.397Z,7.21
2023-04-04T00:07:37.938Z,6.95
2023-04-04T00:10:04.695Z,7.18
2023-04-04T00:12:31.312Z,7.29
2023-04-04T00:14:57.935Z,7.29
2023-04-04T00:17:24.496Z,7.28
2023-04-04T00:19:50.998Z,7.30
2023-04-04T00:22:18.992Z,7.06
2023-04-04T00:24:45.515Z,7.18
2023-04-04T00:27:12.048Z,7.30
2023-04-04T00:29:38.586Z,7.25
2023-04-04T00:32:05.409Z,6.98
2023-04-04T00:34:32.028Z,7.21
2023-04-04T00:36:58.860Z,7.11
2023-04-04T00:39:26.522Z,7.18
2023-04-04T00:41:53.187Z,7.26
2023-04-04T00:44:20.439Z,7.25
2023-04-04T00:46:46.976Z,7.27
2023-04-04T00:49:13.646Z,7.08
2023-04-04T00:51:40.168Z,6.89
2023-04-04T00:54:06.805Z,6.64
2023-04-04T00:56:36.902Z,6.93
2023-04-04T00:59:03.584Z,7.13
2023-04-04T01:01:31.558Z,7.02
2023-04-04T01:03:58.410Z,7.11
2023-04-04T01:06:26.433Z,6.80
2023-04-04T01:08:55.211Z,6.96
2023-04-04T01:11:21.974Z,7.00
2023-04-04T01:13:48.681Z,6.98
2023-04-04T01:16:17.130Z,6.87
2023-04-04T01:18:45.221Z,7.00
2023-04-04T01:21:14.169Z,6.91
2023-04-04T01:23:41.220Z,6.93
2023-04-04T01:26:07.974Z,6.83
2023-04-04T01:28:35.384Z,6.63
2023-04-04T01:31:09.746Z,6.79
2023-04-04T01:33:41.258Z,6.66
2023-04-04T01:36:18.866Z,6.75
2023-04-04T01:39:08.651Z,6.58
2023-04-04T01:41:36.222Z,6.45
2023-04-04T01:44:03.989Z,6.57
2023-04-04T01:46:31.355Z,6.55
2023-04-04T01:48:58.146Z,6.36
2023-04-04T01:51:30.977Z,6.05
2023-04-04T01:53:57.628Z,6.47
2023-04-04T01:56:24.962Z,6.53
2023-04-04T01:58:53.659Z,6.54
2023-04-04T02:01:20.424Z,6.36
2023-04-04T02:03:47.561Z,6.47
2023-04-04T02:06:14.360Z,6.45
2023-04-04T02:08:41.389Z,6.55
2023-04-04T02:11:09.544Z,6.21
2023-04-04T02:13:41.147Z,6.30
2023-04-04T02:16:08.296Z,5.69
2023-04-04T02:18:36.136Z,6.22
2023-04-04T02:21:02.837Z,6.22
2023-04-04T02:23:29.385Z,6.14
2023-04-04T02:25:55.993Z,6.26
2023-04-04T02:28:22.684Z,6.25
2023-04-04T02:30:49.262Z,6.26
2023-04-04T02:33:15.844Z,6.22
2023-04-04T02:35:42.616Z,6.19
2023-04-04T02:38:09.240Z,6.13
2023-04-04T02:40:45.732Z,6.15
2023-04-04T02:43:12.531Z,6.09
2023-04-04T02:45:40.025Z,5.48
2023-04-04T02:48:27.416Z,6.07
2023-04-04T02:50:57.803Z,5.87
2023-04-04T02:53:24.329Z,5.95
2023-04-04T02:55:54.096Z,5.88
2023-04-04T02:58:20.741Z,5.80
2023-04-04T03:00:54.053Z,5.92
2023-04-04T03:03:22.043Z,6.01
2023-04-04T03:05:49.976Z,5.93
2023-04-04T03:08:16.568Z,5.95
2023-04-04T03:10:45.033Z,5.94
2023-04-04T03:13:12.228Z,5.97
2023-04-04T03:15:40.809Z,5.97
2023-04-04T03:18:07.638Z,5.96
2023-04-04T03:20:34.699Z,5.99
2023-04-04T03:23:01.288Z,6.02
2023-04-04T03:25:27.929Z,5.98
2023-04-04T03:27:54.795Z,5.88
2023-04-04T03:30:24.360Z,5.88
2023-04-04T03:32:51.275Z,5.69
2023-04-04T03:35:17.838Z,5.85
2023-04-04T03:37:44.608Z,5.68
2023-04-04T03:40:11.505Z,5.79
2023-04-04T03:42:38.556Z,5.84
2023-04-04T03:45:09.324Z,5.71
2023-04-04T03:47:37.034Z,5.81
2023-04-04T03:50:03.769Z,5.72
2023-04-04T03:52:32.194Z,5.66
2023-04-04T03:54:58.755Z,5.47
2023-04-04T03:57:27.092Z,5.60
2023-04-04T03:59:53.648Z,5.63
2023-04-04T04:02:21.944Z,5.55
2023-04-04T04:04:48.464Z,5.62
2023-04-04T04:07:15.391Z,5.64
2023-04-04T04:09:42.231Z,5.68
2023-04-04T04:12:08.753Z,5.73
2023-04-04T04:14:35.306Z,5.73
2023-04-04T04:17:02.659Z,5.76
2023-04-04T04:19:29.996Z,5.71
2023-04-04T04:21:57.363Z,5.63
2023-04-04T04:24:23.949Z,5.59
2023-04-04T04:26:50.526Z,5.51
2023-04-04T04:29:17.087Z,5.38
2023-04-04T04:31:44.008Z,5.48
2023-04-04T04:34:11.319Z,5.49
2023-04-04T04:36:39.782Z,5.55
2023-04-04T04:39:32.707Z,5.19
2023-04-04T04:42:15.915Z,5.30
2023-04-04T04:44:49.461Z,5.29
2023-04-04T04:47:16.567Z,4.97
2023-04-04T04:49:44.555Z,4.92
2023-04-04T04:52:11.889Z,5.37
2023-04-04T04:54:43.653Z,5.41
2023-04-04T04:57:10.661Z,5.39
2023-04-04T04:59:41.344Z,5.49
2023-04-04T05:02:09.851Z,5.56
2023-04-04T05:04:44.836Z,5.50
2023-04-04T05:07:13.314Z,5.53
2023-04-04T05:09:43.060Z,5.57
2023-04-04T05:12:10.295Z,5.51
2023-04-04T05:14:41.035Z,5.32
2023-04-04T05:17:07.646Z,5.36
2023-04-04T05:19:35.196Z,5.54
2023-04-04T05:22:02.566Z,5.39
2023-04-04T05:24:43.650Z,5.62
2023-04-04T05:27:14.245Z,5.66
2023-04-04T05:29:46.797Z,5.57
2023-04-04T05:32:13.592Z,5.52
2023-04-04T05:34:43.457Z,5.35
2023-04-04T05:37:15.040Z,5.80
2023-04-04T05:39:46.553Z,5.74
2023-04-04T05:42:13.667Z,5.81
2023-04-04T05:44:46.253Z,5.50
2023-04-04T05:47:13.360Z,5.49
2023-04-04T05:49:43.871Z,5.72
2023-04-04T05:52:10.669Z,6.22
2023-04-04T05:54:37.966Z,6.26
2023-04-04T05:57:10.709Z,6.05
2023-04-04T05:59:42.104Z,6.13
2023-04-04T06:02:11.299Z,6.28
2023-04-04T06:04:41.420Z,6.68
2023-04-04T06:07:10.201Z,6.52
2023-04-04T06:09:36.821Z,6.86
2023-04-04T06:12:06.591Z,6.40
2023-04-04T06:14:34.193Z,6.94
2023-04-04T06:17:04.359Z,6.78
2023-04-04T06:19:31.315Z,6.90
2023-04-04T06:21:58.122Z,7.20
2023-04-04T06:24:25.450Z,7.31
2023-04-04T06:26:52.929Z,6.87
2023-04-04T06:29:22.802Z,7.18
2023-04-04T06:31:49.797Z,7.10
2023-04-04T06:34:22.663Z,7.03
2023-04-04T06:36:55.498Z,7.56
2023-04-04T06:39:25.061Z,7.56
2023-04-04T06:41:54.083Z,7.64
2023-04-04T06:44:26.134Z,7.61
2023-04-04T06:46:52.773Z,7.84
2023-04-04T06:49:19.363Z,7.55
2023-04-04T06:51:46.748Z,7.56
2023-04-04T06:54:14.127Z,7.66
2023-04-04T06:56:40.670Z,7.39
2023-04-04T06:59:11.284Z,7.61
2023-04-04T07:01:37.877Z,7.66
2023-04-04T07:04:04.468Z,7.64
2023-04-04T07:06:31.400Z,7.67
2023-04-04T07:08:57.995Z,7.74
2023-04-04T07:11:24.630Z,7.81
2023-04-04T07:13:51.625Z,7.31
2023-04-04T07:16:18.302Z,8.32
2023-04-04T07:18:44.998Z,8.35
2023-04-04T07:21:11.572Z,8.34
2023-04-04T07:23:38.120Z,8.16
2023-04-04T07:26:04.849Z,8.58
2023-04-04T07:28:31.460Z,8.47
2023-04-04T07:31:01.897Z,8.48
2023-04-04T07:33:28.461Z,8.15
2023-04-04T07:35:55.056Z,8.31
2023-04-04T07:38:21.885Z,8.62
2023-04-04T07:40:49.994Z,8.75
2023-04-04T07:43:16.672Z,8.28
2023-04-04T07:45:43.382Z,8.87
2023-04-04T07:48:09.914Z,9.39
2023-04-04T07:50:36.479Z,9.08
2023-04-04T07:53:03.083Z,8.84
2023-04-04T07:55:29.625Z,9.26
2023-04-04T07:57:56.261Z,8.84
2023-04-04T08:00:25.772Z,9.24
2023-04-04T08:02:53.906Z,8.91
2023-04-04T08:05:20.722Z,9.22
2023-04-04T08:07:47.358Z,9.18
2023-04-04T08:10:17.383Z,9.45
2023-04-04T08:12:46.746Z,9.32
2023-04-04T08:15:13.567Z,9.73
2023-04-04T08:17:40.700Z,9.45
2023-04-04T08:20:07.769Z,9.67
2023-04-04T08:22:34.287Z,9.83
2023-04-04T08:25:00.933Z,9.57
2023-04-04T08:27:27.582Z,9.86
2023-04-04T08:29:54.099Z,10.52
2023-04-04T08:32:20.774Z,10.29
2023-04-04T08:34:47.903Z,10.25
2023-04-04T08:37:14.742Z,10.00
2023-04-04T08:39:41.262Z,10.59
2023-04-04T08:42:09.340Z,10.82
2023-04-04T08:44:39.608Z,10.40
2023-04-04T08:47:09.433Z,10.80
2023-04-04T08:49:41.037Z,10.57
2023-04-04T08:52:11.559Z,10.53
2023-04-04T08:54:40.623Z,11.34
2023-04-04T08:57:08.321Z,11.09
2023-04-04T08:59:35.476Z,10.76
2023-04-04T09:02:15.881Z,10.86
2023-04-04T09:04:51.359Z,11.22
2023-04-04T09:07:26.312Z,10.85
2023-04-04T09:09:53.872Z,11.37
2023-04-04T09:12:24.790Z,11.03
2023-04-04T09:14:53.109Z,11.24
2023-04-04T09:17:20.066Z,10.73
2023-04-04T09:19:46.758Z,11.51
2023-04-04T09:22:16.124Z,11.18
2023-04-04T09:24:43.475Z,11.04
2023-04-04T09:27:11.661Z,10.17
2023-04-04T09:29:39.420Z,9.63
2023-04-04T09:32:10.546Z,10.11
2023-04-04T09:34:37.800Z,9.71
2023-04-04T09:37:05.672Z,10.49
2023-04-04T09:39:39.087Z,10.79
2023-04-04T09:42:07.468Z,10.44
2023-04-04T09:44:36.868Z,11.18
2023-04-04T09:50:01.766Z,10.92
2023-04-04T09:52:33.164Z,10.82
2023-04-04T09:55:02.433Z,10.32
2023-04-04T09:57:34.413Z,10.52
2023-04-04T10:00:03.390Z,10.52
2023-04-04T10:02:38.841Z,10.83
2023-04-04T10:05:07.090Z,10.58
2023-04-04T10:07:38.489Z,10.76
2023-04-04T10:10:06.665Z,10.80
2023-04-04T10:12:33.277Z,11.45
2023-04-04T10:15:01.144Z,11.58
2023-04-04T10:17:39.428Z,11.36
2023-04-04T10:20:08.918Z,12.68
2023-04-04T10:22:37.755Z,12.74
2023-04-04T10:25:09.223Z,12.75
2023-04-04T10:27:37.913Z,12.50
2023-04-04T10:30:05.024Z,12.65
2023-04-04T10:33:07.584Z,12.52
2023-04-04T10:35:36.110Z,11.89
2023-04-04T10:38:05.207Z,12.33
2023-04-04T10:40:37.797Z,11.87
2023-04-04T10:43:06.579Z,11.69
2023-04-04T10:45:36.235Z,12.21
2023-04-04T10:48:03.653Z,12.99
2023-04-04T10:50:33.168Z,12.46
2023-04-04T10:53:02.094Z,13.21
2023-04-04T10:55:29.493Z,13.60
2023-04-04T10:57:56.867Z,14.09
2023-04-04T11:00:24.237Z,14.09
2023-04-04T11:02:55.788Z,14.84
2023-04-04T11:05:26.698Z,15.58
2023-04-04T11:08:09.410Z,16.45
2023-04-04T11:10:44.605Z,18.45
2023-04-04T11:13:16.220Z,19.79
2023-04-04T11:16:00.370Z,20.42
2023-04-04T11:18:47.796Z,20.77
2023-04-04T11:21:15.296Z,22.33
2023-04-04T11:23:48.392Z,24.10
2023-04-04T11:26:30.309Z,23.70
2023-04-04T11:29:14.206Z,22.52
2023-04-04T11:31:43.914Z,20.72
2023-04-04T11:34:13.088Z,18.86
2023-04-04T11:36:44.831Z,19.22
2023-04-04T11:39:31.854Z,19.90
2023-04-04T11:42:14.786Z,19.28
2023-04-04T11:45:02.019Z,16.72
2023-04-04T11:47:29.424Z,18.03
2023-04-04T11:49:56.675Z,19.27
2023-04-04T11:52:26.198Z,19.44
2023-04-04T11:54:52.860Z,18.63
2023-04-04T11:57:21.119Z,16.80
2023-04-04T11:59:49.683Z,15.96
2023-04-04T12:02:20.142Z,14.87
2023-04-04T12:04:47.541Z,13.91
2023-04-04T12:07:17.486Z,16.22
2023-04-04T12:09:44.504Z,18.38
2023-04-04T12:12:16.299Z,19.75
2023-04-04T12:14:44.202Z,22.25
2023-04-04T12:17:11.581Z,23.52
2023-04-04T12:19:41.201Z,23.73
2023-04-04T12:22:08.266Z,20.66
2023-04-04T12:24:36.303Z,18.43
2023-04-04T12:27:03.564Z,19.86
2023-04-04T12:29:37.406Z,23.14
2023-04-04T12:32:05.189Z,23.70
2023-04-04T12:34:42.367Z,24.31
2023-04-04T12:37:11.348Z,21.93
2023-04-04T12:39:46.226Z,22.28
2023-04-04T12:42:13.716Z,21.65
2023-04-04T12:44:40.584Z,21.21
2023-04-04T12:47:09.801Z,18.53
2023-04-04T12:49:45.221Z,16.94
2023-04-04T12:52:20.594Z,15.76
2023-04-04T12:54:50.937Z,16.25
2023-04-04T12:57:25.716Z,17.49
2023-04-04T12:59:54.668Z,17.09
2023-04-04T13:02:23.342Z,17.51
2023-04-04T13:04:56.943Z,17.18
2023-04-04T13:07:34.735Z,19.74
2023-04-04T13:10:04.713Z,22.97
2023-04-04T13:12:58.455Z,23.37
2023-04-04T13:15:47.954Z,21.37
2023-04-04T13:18:17.132Z,17.41
2023-04-04T13:20:43.879Z,17.71
2023-04-04T13:23:10.824Z,19.44
2023-04-04T13:25:38.410Z,20.95
2023-04-04T13:28:05.798Z,21.82
2023-04-04T13:30:32.417Z,24.49
2023-04-04T13:32:59.677Z,26.36
2023-04-04T13:35:26.972Z,26.86
2023-04-04T13:37:53.505Z,28.52
2023-04-04T13:40:20.176Z,27.88
2023-04-04T13:42:46.678Z,28.05
2023-04-04T13:45:14.424Z,27.43
2023-04-04T13:47:41.203Z,26.00
2023-04-04T13:50:08.327Z,25.31
2023-04-04T13:52:34.853Z,23.57
2023-04-04T13:55:02.960Z,21.85
2023-04-04T13:57:29.485Z,22.09
2023-04-04T13:59:58.909Z,20.82
2023-04-04T14:02:25.722Z,19.46
2023-04-04T14:04:52.585Z,21.00
2023-04-04T14:07:19.544Z,22.37
2023-04-04T14:09:46.321Z,23.65
2023-04-04T14:14:41.280Z,22.40
2023-04-04T14:17:07.843Z,21.01
2023-04-04T14:19:34.376Z,18.93
2023-04-04T14:22:01.015Z,17.36
2023-04-04T14:24:27.581Z,16.92
2023-04-04T14:26:54.150Z,16.32
2023-04-04T14:29:21.820Z,16.90
2023-04-04T14:31:48.367Z,17.68
2023-04-04T14:34:15.505Z,17.34
2023-04-04T14:36:42.210Z,16.98
2023-04-04T14:39:08.792Z,16.65
2023-04-04T14:41:35.356Z,16.25
2023-04-04T14:44:02.192Z,16.86
2023-04-04T14:46:28.764Z,17.64
2023-04-04T14:48:55.383Z,17.27
2023-04-04T14:51:22.003Z,16.80
2023-04-04T14:53:48.751Z,17.19
2023-04-04T14:56:15.364Z,17.92
2023-04-04T14:58:41.903Z,16.21
2023-04-04T15:01:08.594Z,16.40
2023-04-04T15:03:35.256Z,16.41
2023-04-04T15:06:02.965Z,16.01
2023-04-04T15:08:29.481Z,15.76
2023-04-04T15:10:56.292Z,15.02
2023-04-04T15:13:22.998Z,18.05
2023-04-04T15:15:49.546Z,19.47
2023-04-04T15:18:16.548Z,21.30
2023-04-04T15:20:43.525Z,21.11
2023-04-04T15:23:10.486Z,18.39
2023-04-04T15:25:37.029Z,17.16
2023-04-04T15:28:03.578Z,18.51
2023-04-04T15:30:30.895Z,19.68
2023-04-04T15:32:57.573Z,19.44
2023-04-04T15:35:24.329Z,17.85
2023-04-04T15:37:51.178Z,17.22
2023-04-04T15:40:18.844Z,16.61
2023-04-04T15:42:46.300Z,16.13
2023-04-04T15:45:14.454Z,15.28
2023-04-04T15:47:41.843Z,14.75
2023-04-04T15:50:08.716Z,14.49
2023-04-04T15:52:35.534Z,13.99
2023-04-04T15:55:02.864Z,13.66
2023-04-04T15:57:29.449Z,13.70
2023-04-04T15:59:56.047Z,13.40
2023-04-04T16:02:22.777Z,12.92
2023-04-04T16:04:49.377Z,13.10
2023-04-04T16:07:18.965Z,12.96
2023-04-04T16:09:46.061Z,12.89
2023-04-04T16:12:12.585Z,12.32
2023-04-04T16:14:39.175Z,12.30
2023-04-04T16:17:05.702Z,11.62
2023-04-04T16:19:32.248Z,11.55
2023-04-04T16:21:58.811Z,11.95
2023-04-04T16:24:25.523Z,11.84
2023-04-04T16:26:52.078Z,12.23
2023-04-04T16:29:20.297Z,12.14
2023-04-04T16:31:46.971Z,11.76
2023-04-04T16:34:13.727Z,11.96
2023-04-04T16:36:40.377Z,11.74
2023-04-04T16:39:07.365Z,11.82
2023-04-04T16:41:40.594Z,11.63
2023-04-04T16:44:07.199Z,11.59
2023-04-04T16:46:33.739Z,11.26
2023-04-04T16:49:00.341Z,11.42
2023-04-04T16:51:27.761Z,11.29
2023-04-04T16:53:54.666Z,11.50
2023-04-04T16:56:21.262Z,11.44
2023-04-04T16:58:47.822Z,11.41
2023-04-04T17:01:20.681Z,11.20
2023-04-04T17:03:47.423Z,11.31
2023-04-04T17:06:14.032Z,11.41
2023-04-04T17:08:45.122Z,11.03
2023-04-04T17:11:12.999Z,10.72
2023-04-04T17:13:39.556Z,10.76
2023-04-04T17:16:06.262Z,11.03
2023-04-04T17:18:34.035Z,11.17
2023-04-04T17:21:01.264Z,11.08
2023-04-04T17:23:28.279Z,10.91
2023-04-04T17:25:54.855Z,10.97
2023-04-04T17:28:21.509Z,10.89
2023-04-04T17:30:48.083Z,10.53
2023-04-04T17:33:14.799Z,10.78
2023-04-04T17:35:41.389Z,10.72
2023-04-04T17:38:07.946Z,10.61
2023-04-04T17:40:36.322Z,10.40
2023-04-04T17:43:02.893Z,10.46
2023-04-04T17:45:29.535Z,10.36
2023-04-04T17:47:56.222Z,10.24
2023-04-04T17:50:23.066Z,10.27
2023-04-04T17:52:49.727Z,10.21
2023-04-04T17:55:17.817Z,9.96
2023-04-04T17:57:45.006Z,9.92
2023-04-04T18:00:12.746Z,9.91
2023-04-04T18:02:39.321Z,9.67
2023-04-04T18:05:06.861Z,9.72
2023-04-04T18:07:33.439Z,9.74
2023-04-04T18:10:00.006Z,9.62
2023-04-04T18:12:29.984Z,9.56
2023-04-04T18:14:56.657Z,9.44
2023-04-04T18:17:24.768Z,9.47
2023-04-04T18:19:54.521Z,9.33
2023-04-04T18:22:22.552Z,9.27
2023-04-04T18:24:49.424Z,9.23
2023-04-04T18:27:16.220Z,9.28
2023-04-04T18:29:42.978Z,9.20
2023-04-04T18:32:09.692Z,9.29
2023-04-04T18:34:36.304Z,9.22
2023-04-04T18:37:02.853Z,9.14
2023-04-04T18:39:29.592Z,9.07
2023-04-04T18:41:56.651Z,9.01
2023-04-04T18:44:23.342Z,8.96
2023-04-04T18:46:50.006Z,8.96
2023-04-04T18:49:16.579Z,8.90
2023-04-04T18:51:43.084Z,8.92
2023-04-04T18:54:09.614Z,8.90
2023-04-04T18:56:37.962Z,8.79
2023-04-04T18:59:05.553Z,8.83
2023-04-04T19:01:32.788Z,8.81
2023-04-04T19:04:03.036Z,8.76
2023-04-04T19:06:30.908Z,8.77
2023-04-04T19:09:03.712Z,8.75
2023-04-04T19:11:35.655Z,8.78
2023-04-04T19:14:02.635Z,8.68
2023-04-04T19:18:55.902Z,8.58
2023-04-04T19:21:22.434Z,8.62
2023-04-04T19:23:49.108Z,8.54
2023-04-04T19:26:18.012Z,8.55
2023-04-04T19:28:46.318Z,8.54
2023-04-04T19:31:25.077Z,8.45
2023-04-04T19:33:54.882Z,8.44
2023-04-04T19:36:21.605Z,8.42
2023-04-04T19:38:51.490Z,8.34
2023-04-04T19:41:20.271Z,8.30
2023-04-04T19:43:47.865Z,8.25
2023-04-04T19:46:16.828Z,8.19
2023-04-04T19:48:49.390Z,8.20
2023-04-04T19:51:16.590Z,8.16
2023-04-04T19:53:45.077Z,8.12
2023-04-04T19:56:13.322Z,8.05
2023-04-04T19:58:40.460Z,7.99
2023-04-04T20:01:09.176Z,7.89
2023-04-04T20:03:38.022Z,7.91
2023-04-04T20:06:23.040Z,7.88
2023-04-04T20:08:51.993Z,7.81
2023-04-04T20:11:28.723Z,7.68
2023-04-04T20:13:56.927Z,7.69
2023-04-04T20:16:24.737Z,7.61
2023-04-04T20:18:51.894Z,7.54
2023-04-04T20:21:23.007Z,7.57
2023-04-04T20:23:57.678Z,7.52
2023-04-04T20:26:51.444Z,7.38
2023-04-04T20:29:21.789Z,7.40
2023-04-04T20:31:56.736Z,7.40
2023-04-04T20:34:42.837Z,7.23
2023-04-04T20:37:14.255Z,7.27
2023-04-04T20:39:53.217Z,7.24
2023-04-04T20:42:40.339Z,7.15
2023-04-04T20:45:10.318Z,7.15
2023-04-04T20:47:51.529Z,7.11
2023-04-04T20:50:18.405Z,7.13
2023-04-04T20:52:56.341Z,7.05
2023-04-04T20:55:25.407Z,6.95
2023-04-04T20:57:53.947Z,6.94
2023-04-04T21:00:29.751Z,6.97
2023-04-04T21:02:58.058Z,6.94
2023-04-04T21:05:30.033Z,6.87
2023-04-04T21:07:57.363Z,6.89
2023-04-04T21:10:26.902Z,6.95
2023-04-04T21:12:57.146Z,6.78
2023-04-04T21:15:29.049Z,6.83
2023-04-04T21:17:59.109Z,6.71
2023-04-04T21:20:47.148Z,6.71
2023-04-04T21:23:26.113Z,6.65
2023-04-04T21:25:58.860Z,6.69
2023-04-04T21:28:31.596Z,6.71
2023-04-04T21:30:58.878Z,6.75
2023-04-04T21:33:25.733Z,6.75
2023-04-04T21:35:53.659Z,6.68
2023-04-04T21:38:30.805Z,6.71
2023-04-04T21:41:01.112Z,6.71
2023-04-04T21:43:28.343Z,6.63
2023-04-04T21:45:56.113Z,6.67
2023-04-04T21:48:24.058Z,6.52
2023-04-04T21:50:50.850Z,6.59
2023-04-04T21:53:17.469Z,6.54
2023-04-04T21:55:44.998Z,6.38
2023-04-04T21:58:12.681Z,6.44
2023-04-04T22:00:39.538Z,6.42
2023-04-04T22:03:06.830Z,6.40
2023-04-04T22:05:38.923Z,6.34
2023-04-04T22:08:06.102Z,6.39
2023-04-04T22:10:33.022Z,6.25
2023-04-04T22:12:59.709Z,6.35
2023-04-04T22:15:29.702Z,6.27
2023-04-04T22:18:03.863Z,6.25
2023-04-04T22:20:33.552Z,6.09
2023-04-04T22:23:00.141Z,6.15
2023-04-04T22:25:27.188Z,6.23
2023-04-04T22:27:53.804Z,6.12
2023-04-04T22:30:21.599Z,6.12
2023-04-04T22:32:48.472Z,6.11
2023-04-04T22:35:15.326Z,6.07
2023-04-04T22:37:41.877Z,6.08
2023-04-04T22:40:13.102Z,6.07
2023-04-04T22:42:39.774Z,6.02
2023-04-04T22:45:06.821Z,5.98
2023-04-04T22:47:33.362Z,5.87
2023-04-04T22:50:04.560Z,5.77
2023-04-04T22:52:34.590Z,5.73
2023-04-04T22:55:01.249Z,5.60
2023-04-04T22:57:27.772Z,5.65
2023-04-04T22:59:54.330Z,5.64
2023-04-04T23:02:20.834Z,5.54
2023-04-04T23:04:47.388Z,5.18
2023-04-04T23:07:13.964Z,5.28
2023-04-04T23:09:40.510Z,5.11
2023-04-04T23:12:07.491Z,5.10
2023-04-04T23:14:38.868Z,5.14
2023-04-04T23:17:06.799Z,5.20
2023-04-04T23:19:33.355Z,5.22
2023-04-04T23:21:59.919Z,5.23
2023-04-04T23:24:26.439Z,5.29
2023-04-04T23:26:52.999Z,5.25
2023-04-04T23:29:19.633Z,5.27
2023-04-04T23:31:46.304Z,5.28
2023-04-04T23:34:12.925Z,5.43
2023-04-04T23:36:39.457Z,5.41
2023-04-04T23:39:06.267Z,5.42
2023-04-04T23:41:33.069Z,5.41
2023-04-04T23:43:59.828Z,5.40
2023-04-04T23:46:26.533Z,5.44
2023-04-04T23:48:53.103Z,5.37
2023-04-04T23:51:19.696Z,5.32
2023-04-04T23:53:46.221Z,5.42
2023-04-04T23:56:12.766Z,5.35
2023-04-04T23:58:39.428Z,5.27
